AirNav   Air Wisconsin Up To $57,000 Bonus
 
 619 users online  

39WI J & B Airport
Viola, Wisconsin, USA

GOING TO VIOLA?


FAA INFORMATION EFFECTIVE 26 JANUARY 2023

Location

FAA Identifier: 39WI
Lat/Long: 43-29-04.9130N 090-37-11.4670W
43-29.081883N 090-37.191117W
43.4846981,-90.6198519
(estimated)
Elevation: 1200 ft. / 366 m (estimated)
Variation: 01E (1985)
From city: 3 miles SE of VIOLA, WI
Time zone: UTC -6 (UTC -5 during Daylight Saving Time)
Zip code: 54664

Airport Operations

Airport use: Private use. Permission required prior to landing
Activation date: 10/1978
Control tower: no
ARTCC: CHICAGO CENTER
FSS: GREEN BAY FLIGHT SERVICE STATION
Attendance: UNATNDD
Segmented circle: no

Airport Communications

WX AWOS-3P at Y51 (13 nm NW): 118.975 (608-637-2925)
WX ASOS at OVS (20 nm S): 126.775 (608-375-2712)

Nearby radio navigation aids

VOR radial/distance  VOR name  Freq  Var
DLLr261/37.5DELLS VORTAC117.0003E

 
NDB name  Hdg/Dist  Freq  Var  ID
MCCOY178/27.241200ECMY -.-. -- -.--

Airport Services

Runway Information

Runway 13/31

Dimensions: 2200 x 30 ft. / 671 x 9 m
Surface: asphalt/L
Operational restrictions: RWY 13/31 CLSD INDEFLY.
RUNWAY 13  RUNWAY 31
Traffic pattern: leftleft

Airport Ownership and Management from official FAA records

Ownership: Privately-owned
Owner: ROBERT GRUENEBERGER
14437 COUNTY HIGHWAY G
VIOLA, WI 54664
Phone 608-627-1687
Manager: BOB GRUENEBERGER
14437 COUNTY HIGHWAY G
VIOLA, WI 54664
Phone 608-627-1687

Additional Remarks

IN THE WINTER CALL 480-575-3285.
FOR CD CTC CHICAGO ARTCC AT 630-906-8921.

Instrument Procedures

There are no published instrument procedures at 39WI.

Some nearby airports with instrument procedures:

Y51 - Viroqua Municipal Airport (13 nm NW)
93C - Richland Airport (19 nm SE)
KOVS - Boscobel Airport (20 nm S)
KLNR - Tri-County Regional Airport (25 nm SE)
C35 - Reedsburg Municipal Airport (28 nm E)
 
Loc | Ops | Rwys | IFR | FBO | Links
Com | Nav | Svcs | Stats | Notes
Area around 39WI (J & B Airport)
 
Road maps at: MapQuest Bing Google
 
Aerial photo
No photo
 
Sectional chart

 
Airport distance calculator
Flying to J & B Airport? Find the distance to fly.

From to 39WI

Sunrise and sunset
Times for 27-Jan-2023
 Local
(UTC-6)
 Zulu
(UTC)
Morning civil twilight06:5412:54
Sunrise07:2513:25
Sunset17:0623:06
Evening civil twilight17:3723:37

Current date and time
Zulu (UTC)  27-Jan-2023 11:15:24
Local (UTC-6)  27-Jan-2023 05:15:24
 
METAR
KY51 
13nm NW 
271055Z AUTO 18012G16KT 3SM BKN017 OVC025 M08/M08 A2959 RMK AO1 T10801081
KOVS 
20nm S 
271053Z AUTO 19010G20KT 4SM -SN SCT032 OVC041 M07/M11 A2970 RMK AO2 SNB45 SLP068 P0000 T10671111
KLNR 
25nm SE 
271056Z AUTO 20010G17KT 10SM OVC050 M07/M12 A2972 RMK AO2 SLP070 T10721117
TAF
KVOK 
30nm NE 
261800Z 2618/2723 32012KT 9000 -SN BKN015 OVC030 620153 QNH2985INS BECMG 2620/2621 VRB06KT 9999 NSW BKN008 OVC015 620083 QNH2997INS BECMG 2709/2710 17009KT 9999 BKN015 OVC040 620153 510053 QNH2961INS BECMG 2717/2718 21012G18KT 9999 BKN025 620253 510053 QNH2953INS TX06/2620Z TNM18/2704Z LAST NO AMDS AFT 2623 NEXT 2709
KLSE 
36nm NW 
270527Z 2706/2806 18008KT P6SM OVC013 FM270800 17012G22KT P6SM BKN090 FM271000 17012G25KT 2SM -SN BR OVC015 FM271300 19008KT 1 1/2SM -SN BR OVC011 FM271500 22010G22KT 4SM -SN OVC011 FM272100 29015G24KT P6SM BKN060
NOTAMs
Click for the latest NOTAMs
NOTAMs are issued by the DoD/FAA and will open in a separate window not controlled by AirNav.

 

 
 

Would you like to see your business listed on this page?

 If your business provides an interesting product or service to pilots, flight crews, aircraft, or users of the J & B Airport, you should consider listing it here.  To start the listing process, click on the button below
 
Add a business
 

Other Pages about J & B Airport

Update a link
 
Copyright © AirNav, LLC. All rights reserved. Privacy Policy  Contact